createdAt,value
2023-04-15T00:02:23.655Z,7.7
2023-04-15T00:07:54.466Z,7.67
2023-04-15T00:13:26.198Z,7.63
2023-04-15T00:18:58.171Z,7.53
2023-04-15T00:24:29.838Z,7.49
2023-04-15T00:30:01.739Z,7.41
2023-04-15T00:35:33.051Z,7.33
2023-04-15T00:41:04.790Z,7.26
2023-04-15T00:46:43.107Z,7.22
2023-04-15T00:52:14.914Z,7.22
2023-04-15T00:57:46.471Z,7.11
2023-04-15T01:03:18.277Z,7.03
2023-04-15T01:08:50.050Z,6.88
2023-04-15T01:14:21.872Z,6.84
2023-04-15T01:19:53.327Z,6.83
2023-04-15T01:25:25.096Z,6.77
2023-04-15T01:30:56.797Z,6.72
2023-04-15T01:36:28.511Z,6.7
2023-04-15T01:42:00.215Z,6.7
2023-04-15T01:47:38.659Z,6.69
2023-04-15T01:53:10.256Z,6.63
2023-04-15T01:58:41.853Z,6.6
2023-04-15T02:04:13.950Z,6.58
2023-04-15T02:09:45.530Z,6.51
2023-04-15T02:15:16.989Z,6.47
2023-04-15T02:20:48.948Z,6.39
2023-04-15T02:26:20.403Z,6.29
2023-04-15T02:31:52.495Z,6.16
2023-04-15T02:37:23.867Z,6.09
2023-04-15T02:42:55.959Z,5.95
2023-04-15T02:48:33.789Z,5.92
2023-04-15T02:54:05.676Z,5.87
2023-04-15T02:59:37.399Z,5.85
2023-04-15T03:05:08.978Z,5.83
2023-04-15T03:10:41.044Z,5.77
2023-04-15T03:16:12.383Z,5.74
2023-04-15T03:21:44.305Z,5.7
2023-04-15T03:27:15.824Z,5.67
2023-04-15T03:32:47.639Z,5.58
2023-04-15T03:38:19.536Z,5.54
2023-04-15T03:43:51.214Z,5.49
2023-04-15T03:49:27.435Z,5.51
2023-04-15T03:54:58.826Z,5.45
2023-04-15T04:00:30.679Z,5.47
2023-04-15T04:06:02.338Z,5.45
2023-04-15T04:11:34.374Z,5.36
2023-04-15T04:17:05.791Z,5.42
2023-04-15T04:22:37.451Z,5.46
2023-04-15T04:28:09.230Z,5.53
2023-04-15T04:33:40.942Z,5.53
2023-04-15T04:39:12.674Z,5.51
2023-04-15T04:44:45.058Z,5.5
2023-04-15T04:50:22.724Z,5.43
2023-04-15T04:55:54.362Z,5.45
2023-04-15T05:01:26.631Z,5.5
2023-04-15T05:06:57.859Z,5.51
2023-04-15T05:12:29.372Z,5.53
2023-04-15T05:18:01.524Z,5.47
2023-04-15T05:23:32.982Z,5.43
2023-04-15T05:29:04.775Z,5.45
2023-04-15T05:34:36.483Z,5.44
2023-04-15T05:40:08.026Z,5.53
2023-04-15T05:45:39.719Z,5.75
2023-04-15T05:51:15.840Z,5.82
2023-04-15T05:56:47.609Z,5.87
2023-04-15T06:02:19.573Z,5.76
2023-04-15T06:07:51.263Z,6.22
2023-04-15T06:13:22.899Z,6.26
2023-04-15T06:18:54.751Z,6.34
2023-04-15T06:24:26.215Z,6.68
2023-04-15T06:29:57.948Z,7.2
2023-04-15T06:35:29.875Z,7.73
2023-04-15T06:41:01.379Z,7.36
2023-04-15T06:46:33.128Z,8.17
2023-04-15T06:52:09.235Z,8.14
2023-04-15T06:57:41.180Z,8.43
2023-04-15T07:03:12.713Z,8.84
2023-04-15T07:08:44.404Z,8.88
2023-04-15T07:14:16.356Z,9.3
2023-04-15T07:19:48.030Z,9.38
2023-04-15T07:25:19.735Z,9.49
2023-04-15T07:30:51.645Z,9.98
2023-04-15T07:36:22.961Z,9.84
2023-04-15T07:41:54.746Z,10.19
2023-04-15T07:47:26.800Z,9.87
2023-04-15T07:53:02.781Z,10.21
2023-04-15T07:58:34.508Z,10.5
2023-04-15T08:04:06.273Z,10.8
2023-04-15T08:09:37.740Z,11.33
2023-04-15T08:15:09.469Z,11.47
2023-04-15T08:20:41.186Z,11.6
2023-04-15T08:26:13.109Z,11.65
2023-04-15T08:31:45.088Z,11.86
2023-04-15T08:37:16.552Z,11.79
2023-04-15T08:42:48.067Z,11.7
2023-04-15T08:48:20.344Z,12.52
2023-04-15T08:53:56.327Z,13.07
2023-04-15T08:59:27.816Z,13.35
2023-04-15T09:04:59.590Z,13.33
2023-04-15T09:10:31.271Z,13.48
2023-04-15T09:16:02.818Z,14.31
2023-04-15T09:21:35.147Z,14.2
2023-04-15T09:27:06.239Z,14.08
2023-04-15T09:32:37.966Z,13.76
2023-04-15T09:38:10.092Z,13.5
2023-04-15T09:43:41.661Z,13.77
2023-04-15T09:49:13.172Z,13.56
2023-04-15T09:54:49.977Z,13.76
2023-04-15T10:00:22.231Z,14.03
2023-04-15T10:05:52.763Z,13.81
2023-04-15T10:11:24.651Z,13.71
2023-04-15T10:16:56.518Z,14.07
2023-04-15T10:22:28.059Z,14.11
2023-04-15T10:28:07.079Z,14.57
2023-04-15T10:33:38.325Z,14.97
2023-04-15T10:39:09.914Z,15.49
2023-04-15T10:44:41.596Z,15.14
2023-04-15T10:50:13.392Z,14.75
2023-04-15T10:55:51.451Z,14.93
2023-04-15T11:01:23.450Z,14.58
2023-04-15T11:06:54.930Z,15.26
2023-04-15T11:12:26.627Z,15.93
2023-04-15T11:17:58.378Z,15.8
2023-04-15T11:23:30.313Z,15.37
2023-04-15T11:29:02.367Z,14.77
2023-04-15T11:34:35.019Z,14.09
2023-04-15T11:40:05.256Z,14.16
2023-04-15T11:45:36.983Z,14.89
2023-04-15T11:51:08.732Z,15.07
2023-04-15T11:56:47.090Z,14.98
2023-04-15T12:02:18.892Z,14.82
2023-04-15T12:07:50.517Z,15.11
2023-04-15T12:13:22.237Z,15.29
2023-04-15T12:18:53.703Z,14.14
2023-04-15T12:24:25.439Z,12.72
2023-04-15T12:29:57.397Z,13.18
2023-04-15T12:35:29.143Z,13.17
2023-04-15T12:41:00.790Z,12.89
2023-04-15T12:46:32.379Z,13.06
2023-04-15T12:52:04.089Z,12.73
2023-04-15T12:57:42.399Z,13.14
2023-04-15T13:03:14.401Z,12.74
2023-04-15T13:08:55.289Z,12.71
2023-04-15T13:14:17.413Z,12.79
2023-04-15T13:19:49.340Z,13.03
2023-04-15T13:25:20.900Z,13.19
2023-04-15T13:30:52.635Z,13.17
2023-04-15T13:36:24.451Z,13.22
2023-04-15T13:41:56.054Z,13.4
2023-04-15T13:47:27.730Z,13.33
2023-04-15T13:52:59.488Z,13.09
2023-04-15T13:58:37.907Z,12.74
2023-04-15T14:04:09.720Z,12.81
2023-04-15T14:09:43.218Z,12.61
2023-04-15T14:15:12.854Z,12.45
2023-04-15T14:20:44.638Z,12.61
2023-04-15T14:26:16.395Z,12.09
2023-04-15T14:32:04.415Z,12.05
2023-04-15T14:37:19.878Z,11.8
2023-04-15T14:42:51.382Z,11.74
2023-04-15T14:48:23.265Z,11.69
2023-04-15T14:53:54.836Z,11.55
2023-04-15T14:59:30.961Z,11.38
2023-04-15T15:05:02.997Z,11.29
2023-04-15T15:10:47.185Z,11.25
2023-04-15T15:16:06.369Z,11.33
2023-04-15T15:21:38.134Z,11.55
2023-04-15T15:27:09.560Z,11.67
2023-04-15T15:32:41.322Z,11.76
2023-04-15T15:38:13.003Z,12.09
2023-04-15T15:43:44.710Z,12.35
2023-04-15T15:49:16.443Z,11.6
2023-04-15T15:54:48.175Z,11.49
2023-04-15T16:00:24.317Z,11.75
2023-04-15T16:05:56.258Z,11.99
2023-04-15T16:11:27.781Z,12.22
2023-04-15T16:16:59.695Z,12.09
2023-04-15T16:22:31.207Z,12.08
2023-04-15T16:28:11.679Z,11.83
2023-04-15T16:33:35.225Z,11.69
2023-04-15T16:39:06.606Z,11.71
2023-04-15T16:44:38.383Z,11.52
2023-04-15T16:50:10.766Z,11.38
2023-04-15T16:55:41.851Z,11.09
2023-04-15T17:01:17.965Z,10.38
2023-04-15T17:06:49.688Z,10.39
2023-04-15T17:12:21.350Z,10.32
2023-04-15T17:17:53.122Z,10.34
2023-04-15T17:23:24.545Z,10.19
2023-04-15T17:28:56.513Z,10.19
2023-04-15T17:34:28.313Z,10.17
2023-04-15T17:39:59.949Z,10.29
2023-04-15T17:45:31.662Z,9.92
2023-04-15T17:51:03.455Z,9.84
2023-04-15T17:56:34.882Z,9.87
2023-04-15T18:02:11.271Z,9.64
2023-04-15T18:07:43.059Z,9.72
2023-04-15T18:13:14.683Z,9.76
2023-04-15T18:18:46.218Z,9.64
2023-04-15T18:24:18.162Z,9.39
2023-04-15T18:29:49.891Z,9.14
2023-04-15T18:35:21.599Z,9.2
2023-04-15T18:40:53.276Z,9.11
2023-04-15T18:46:24.928Z,9.01
2023-04-15T18:51:56.620Z,9.23
2023-04-15T18:57:31.253Z,9.17
2023-04-15T19:03:04.756Z,8.85
2023-04-15T19:08:36.400Z,8.74
2023-04-15T19:14:08.093Z,8.8
2023-04-15T19:19:39.758Z,8.83
2023-04-15T19:25:11.357Z,8.91
2023-04-15T19:30:43.116Z,8.73
2023-04-15T19:36:14.801Z,8.58
2023-04-15T19:41:46.700Z,8.67
2023-04-15T19:47:18.405Z,8.95
2023-04-15T19:52:50.239Z,8.76
2023-04-15T19:58:21.681Z,8.51
2023-04-15T20:03:58.096Z,8.54
2023-04-15T20:09:29.544Z,8.66
2023-04-15T20:15:01.409Z,8.61
2023-04-15T20:20:32.969Z,8.71
2023-04-15T20:26:04.965Z,8.59
2023-04-15T20:31:36.503Z,8.58
2023-04-15T20:37:08.121Z,8.53
2023-04-15T20:42:40.050Z,8.47
2023-04-15T20:48:11.635Z,8.54
2023-04-15T20:53:43.981Z,8.44
2023-04-15T20:59:15.059Z,8.51
2023-04-15T21:04:53.185Z,8.46
2023-04-15T21:10:25.068Z,8.38
2023-04-15T21:15:56.679Z,8.48
2023-04-15T21:21:28.362Z,8.53
2023-04-15T21:27:01.141Z,8.65
2023-04-15T21:32:31.866Z,8.61
2023-04-15T21:38:03.517Z,8.54
2023-04-15T21:43:35.248Z,8.48
2023-04-15T21:49:07.331Z,8.53
2023-04-15T21:54:38.657Z,8.46
2023-04-15T22:00:10.412Z,8.47
2023-04-15T22:05:48.546Z,8.4
2023-04-15T22:11:20.213Z,8.48
2023-04-15T22:16:52.034Z,8.6
2023-04-15T22:22:26.824Z,8.53
2023-04-15T22:27:55.420Z,8.69
2023-04-15T22:33:27.159Z,8.75
2023-04-15T22:38:59.079Z,8.49
2023-04-15T22:44:30.807Z,8.48
2023-04-15T22:50:02.281Z,8.57
2023-04-15T22:55:34.307Z,8.49
2023-04-15T23:01:05.737Z,8.6
2023-04-15T23:06:42.127Z,8.65
2023-04-15T23:12:13.658Z,8.54
2023-04-15T23:17:45.450Z,8.41
2023-04-15T23:23:17.075Z,8.53
2023-04-15T23:28:48.816Z,8.6
2023-04-15T23:34:20.525Z,8.53
2023-04-15T23:39:52.240Z,8.43
2023-04-15T23:45:24.011Z,8.31
2023-04-15T23:50:55.715Z,8.44
2023-04-15T23:56:27.421Z,8.44
